createdAt,value
2018-06-05T00:00:08.329Z,7.10
2018-06-05T00:01:45.548Z,6.60
2018-06-05T00:03:21.555Z,6.20
2018-06-05T00:04:57.602Z,7.73
2018-06-05T00:06:33.646Z,7.07
2018-06-05T00:08:09.694Z,6.67
2018-06-05T00:09:45.984Z,7.17
2018-06-05T00:11:22.365Z,7.73
2018-06-05T00:12:58.319Z,7.53
2018-06-05T00:14:34.338Z,10.57
2018-06-05T00:16:10.418Z,10.00
2018-06-05T00:17:46.513Z,8.80
2018-06-05T00:19:22.806Z,8.30
2018-06-05T00:20:58.812Z,8.87
2018-06-05T00:22:34.790Z,9.57
2018-06-05T00:24:11.163Z,9.70
2018-06-05T00:25:47.245Z,10.13
2018-06-05T00:27:23.272Z,9.10
2018-06-05T00:28:59.273Z,7.73
2018-06-05T00:30:35.304Z,8.07
2018-06-05T00:32:11.359Z,8.57
2018-06-05T00:33:47.425Z,8.53
2018-06-05T00:35:23.513Z,8.50
2018-06-05T00:36:59.504Z,8.27
2018-06-05T00:38:35.553Z,8.93
2018-06-05T00:40:11.585Z,11.77
2018-06-05T00:41:47.593Z,8.80
2018-06-05T00:43:23.644Z,10.70
2018-06-05T00:44:59.720Z,9.87
2018-06-05T00:46:35.821Z,8.80
2018-06-05T00:48:11.842Z,13.53
2018-06-05T00:49:47.653Z,10.80
2018-06-05T00:51:40.486Z,9.67
2018-06-05T00:53:16.687Z,8.60
2018-06-05T00:54:52.762Z,9.27
2018-06-05T00:56:28.820Z,8.60
2018-06-05T00:58:04.878Z,9.20
2018-06-05T00:59:40.954Z,11.50
2018-06-05T01:01:17.032Z,9.03
2018-06-05T01:02:53.167Z,9.00
2018-06-05T01:04:29.174Z,8.90
2018-06-05T01:06:05.583Z,9.97
2018-06-05T01:07:41.634Z,8.73
2018-06-05T01:09:17.666Z,10.33
2018-06-05T01:10:53.753Z,10.97
2018-06-05T01:12:29.778Z,9.63
2018-06-05T01:14:05.857Z,12.13
2018-06-05T01:15:41.879Z,12.13
2018-06-05T01:17:17.958Z,11.63
2018-06-05T01:18:54.014Z,10.23
2018-06-05T01:20:30.037Z,10.17
2018-06-05T01:22:06.035Z,10.57
2018-06-05T01:23:42.204Z,10.57
2018-06-05T01:25:18.214Z,10.13
2018-06-05T01:26:54.271Z,10.07
2018-06-05T01:28:30.322Z,10.40
2018-06-05T01:30:06.423Z,12.03
2018-06-05T01:31:42.657Z,11.43
2018-06-05T01:33:18.680Z,11.47
2018-06-05T01:34:54.707Z,12.70
2018-06-05T01:36:30.920Z,12.40
2018-06-05T01:38:06.995Z,11.53
2018-06-05T01:39:43.071Z,13.30
2018-06-05T01:41:19.140Z,13.90
2018-06-05T01:42:55.273Z,13.17
2018-06-05T01:44:45.851Z,14.80
2018-06-05T01:46:21.966Z,15.10
2018-06-05T01:48:04.142Z,11.70
2018-06-05T01:49:41.165Z,15.17
2018-06-05T01:51:17.340Z,16.13
2018-06-05T01:52:53.378Z,15.10
2018-06-05T01:54:29.479Z,14.00
2018-06-05T01:56:05.514Z,19.03
2018-06-05T01:57:41.525Z,17.17
2018-06-05T01:59:17.519Z,17.30
2018-06-05T02:00:53.569Z,18.60
2018-06-05T02:02:29.524Z,18.97
2018-06-05T02:04:05.554Z,20.03
2018-06-05T02:05:41.534Z,19.10
2018-06-05T02:07:17.561Z,18.87
2018-06-05T02:08:53.630Z,18.07
2018-06-05T02:10:29.704Z,20.50
2018-06-05T02:12:05.779Z,19.83
2018-06-05T02:13:41.740Z,24.10
2018-06-05T02:15:17.849Z,19.67
2018-06-05T02:16:55.073Z,21.50
2018-06-05T02:18:31.136Z,20.23
2018-06-05T02:20:07.179Z,21.50
2018-06-05T02:21:43.238Z,20.90
2018-06-05T02:23:19.262Z,20.30
2018-06-05T02:24:55.361Z,22.67
2018-06-05T02:26:31.355Z,20.63
2018-06-05T02:28:07.395Z,25.53
2018-06-05T02:29:43.400Z,21.83
2018-06-05T02:31:19.427Z,24.03
2018-06-05T02:32:55.423Z,24.50
2018-06-05T02:34:31.460Z,26.70
2018-06-05T02:38:19.737Z,25.07
2018-06-05T02:39:55.890Z,27.93
2018-06-05T02:41:31.940Z,24.83
2018-06-05T02:43:07.955Z,23.27
2018-06-05T02:44:43.982Z,26.93
2018-06-05T02:46:20.083Z,24.33
2018-06-05T02:47:56.065Z,32.20
2018-06-05T02:49:32.139Z,35.50
2018-06-05T02:51:08.119Z,36.20
2018-06-05T02:52:44.177Z,40.63
2018-06-05T02:56:32.609Z,35.73
2018-06-05T02:58:08.651Z,36.77
2018-06-05T02:59:44.735Z,36.03
2018-06-05T03:01:20.739Z,34.17
2018-06-05T03:02:56.816Z,32.30
2018-06-05T03:04:32.917Z,36.60
2018-06-05T03:06:08.946Z,37.23
2018-06-05T03:07:45.602Z,35.77
2018-06-05T03:09:21.689Z,35.10
2018-06-05T03:10:57.723Z,34.27
2018-06-05T03:12:33.750Z,32.93
2018-06-05T03:14:09.762Z,33.53
2018-06-05T03:15:45.722Z,34.47
2018-06-05T03:17:21.796Z,35.03
2018-06-05T03:18:57.798Z,35.53
2018-06-05T03:20:33.792Z,33.20
2018-06-05T03:22:10.841Z,36.63
2018-06-05T03:23:46.926Z,37.80
2018-06-05T03:25:24.613Z,37.37
2018-06-05T03:27:00.698Z,36.00
2018-06-05T03:28:36.729Z,36.47
2018-06-05T03:30:12.830Z,33.77
2018-06-05T03:31:48.914Z,36.47
2018-06-05T03:33:25.062Z,34.87
2018-06-05T03:35:01.084Z,35.07
2018-06-05T03:43:25.108Z,33.87
2018-06-05T03:45:01.144Z,33.27
2018-06-05T03:46:37.184Z,31.43
2018-06-05T03:48:13.430Z,34.77
2018-06-05T03:49:49.561Z,42.20
2018-06-05T03:51:25.613Z,40.07
2018-06-05T03:53:02.296Z,39.63
2018-06-05T03:54:38.486Z,42.27
2018-06-05T03:56:17.068Z,49.53
2018-06-05T03:57:53.390Z,41.30
2018-06-05T03:59:29.783Z,37.93
2018-06-05T04:01:06.105Z,37.83
2018-06-05T04:02:42.209Z,38.57
2018-06-05T04:04:18.264Z,39.47
2018-06-05T04:05:54.249Z,38.67
2018-06-05T04:07:30.680Z,42.40
2018-06-05T04:09:07.287Z,44.03
2018-06-05T04:10:43.289Z,45.10
2018-06-05T04:12:19.380Z,49.03
2018-06-05T04:13:56.306Z,46.93
2018-06-05T04:15:32.371Z,43.67
2018-06-05T04:17:08.574Z,47.47
2018-06-05T04:18:44.649Z,43.33
2018-06-05T04:20:20.689Z,44.03
2018-06-05T04:22:00.163Z,39.37
2018-06-05T04:23:37.615Z,38.53
2018-06-05T04:25:13.871Z,43.70
2018-06-05T04:26:49.969Z,50.27
2018-06-05T04:28:26.463Z,53.47
2018-06-05T04:30:03.516Z,54.50
2018-06-05T04:31:39.503Z,51.80
2018-06-05T04:33:19.082Z,56.67
2018-06-05T04:34:55.122Z,48.30
2018-06-05T04:36:31.245Z,52.73
2018-06-05T04:38:07.269Z,51.40
2018-06-05T04:39:45.438Z,52.83
2018-06-05T04:41:21.478Z,51.03
2018-06-05T04:42:58.059Z,47.90
2018-06-05T04:44:33.989Z,55.57
2018-06-05T04:46:09.984Z,50.67
2018-06-05T04:47:47.244Z,58.47
2018-06-05T04:49:23.231Z,54.27
2018-06-05T04:50:59.266Z,51.87
2018-06-05T04:52:35.448Z,54.07
2018-06-05T04:54:11.706Z,56.20
2018-06-05T04:55:47.771Z,53.03
2018-06-05T04:57:23.779Z,53.93
2018-06-05T04:58:59.982Z,52.90
2018-06-05T05:00:38.080Z,52.20
2018-06-05T05:02:14.100Z,51.07
2018-06-05T05:03:50.652Z,48.47
2018-06-05T05:05:26.832Z,48.13
2018-06-05T05:07:02.941Z,43.33
2018-06-05T05:08:39.214Z,43.83
2018-06-05T05:10:15.445Z,43.07
2018-06-05T05:11:51.271Z,39.97
2018-06-05T05:13:27.142Z,39.70
2018-06-05T05:15:03.326Z,39.67
2018-06-05T05:16:39.365Z,37.57
2018-06-05T05:18:15.455Z,40.37
2018-06-05T05:19:52.326Z,39.53
2018-06-05T05:21:31.347Z,40.17
2018-06-05T05:23:07.872Z,39.30
2018-06-05T05:24:44.095Z,40.60
2018-06-05T05:26:20.705Z,37.73
2018-06-05T05:27:56.871Z,40.30
2018-06-05T05:29:33.050Z,43.00
2018-06-05T05:31:09.552Z,45.73
2018-06-05T05:32:46.157Z,40.73
2018-06-05T05:34:22.683Z,46.20
2018-06-05T05:35:59.256Z,43.17
2018-06-05T05:37:35.273Z,41.57
2018-06-05T05:39:11.213Z,48.40
2018-06-05T05:40:48.243Z,41.93
2018-06-05T05:42:26.748Z,41.80
2018-06-05T05:44:02.877Z,40.27
2018-06-05T05:45:38.917Z,40.50
2018-06-05T05:47:16.036Z,43.43
2018-06-05T05:48:52.320Z,42.93
2018-06-05T05:50:28.864Z,48.07
2018-06-05T05:52:05.833Z,45.67
2018-06-05T05:53:42.089Z,53.50
2018-06-05T05:55:18.371Z,59.87
2018-06-05T05:56:54.472Z,59.53
2018-06-05T05:58:30.515Z,52.80
2018-06-05T06:00:06.815Z,57.20
2018-06-05T06:01:42.743Z,58.30
2018-06-05T06:03:19.004Z,50.87
2018-06-05T06:04:55.067Z,57.33
2018-06-05T06:06:31.224Z,51.10
2018-06-05T06:08:07.291Z,54.90
2018-06-05T06:09:43.771Z,53.13
2018-06-05T06:11:25.514Z,54.50
2018-06-05T06:13:01.573Z,58.70
2018-06-05T06:14:37.556Z,63.23
2018-06-05T06:16:14.509Z,59.13
2018-06-05T06:17:50.561Z,58.63
2018-06-05T06:19:26.549Z,58.40
2018-06-05T06:21:02.585Z,56.10
2018-06-05T06:22:38.597Z,55.20
2018-06-05T06:24:14.708Z,60.07
2018-06-05T06:25:50.692Z,67.70
2018-06-05T06:27:27.580Z,60.47
2018-06-05T06:29:03.582Z,61.33
2018-06-05T06:30:39.634Z,63.50
2018-06-05T06:32:16.979Z,60.43
2018-06-05T06:33:53.126Z,58.30
2018-06-05T06:35:29.362Z,73.17
2018-06-05T06:37:05.338Z,68.83
2018-06-05T06:38:41.360Z,66.23
2018-06-05T06:40:17.429Z,72.83
2018-06-05T06:41:53.477Z,68.47
2018-06-05T06:43:29.595Z,59.43
2018-06-05T06:45:06.111Z,66.47
2018-06-05T06:46:42.177Z,68.30
2018-06-05T06:48:18.255Z,57.90
2018-06-05T06:49:54.409Z,67.90
2018-06-05T06:51:30.454Z,63.30
2018-06-05T06:53:06.672Z,69.47
2018-06-05T06:54:42.734Z,65.23
2018-06-05T06:56:19.357Z,72.00
2018-06-05T06:57:55.378Z,64.17
2018-06-05T06:59:31.511Z,69.83
2018-06-05T07:01:07.510Z,63.77
2018-06-05T07:02:43.524Z,68.33
2018-06-05T07:04:19.506Z,61.13
2018-06-05T07:05:55.636Z,66.77
2018-06-05T07:07:31.401Z,64.37
2018-06-05T07:09:09.129Z,66.70
2018-06-05T07:10:45.226Z,64.33
2018-06-05T07:12:21.942Z,65.37
2018-06-05T07:13:57.965Z,59.03
2018-06-05T07:15:33.973Z,69.47
2018-06-05T07:17:10.032Z,69.20
2018-06-05T07:18:46.026Z,66.93
2018-06-05T07:20:22.323Z,72.27
2018-06-05T07:21:58.966Z,69.43
2018-06-05T07:23:35.090Z,66.57
2018-06-05T07:25:11.953Z,72.93
2018-06-05T07:26:47.742Z,67.53
2018-06-05T07:28:23.529Z,63.60
2018-06-05T07:29:59.604Z,65.80
2018-06-05T07:31:35.667Z,62.83
2018-06-05T07:33:11.718Z,57.13
2018-06-05T07:34:47.799Z,59.23
2018-06-05T07:36:23.841Z,56.57
2018-06-05T07:38:00.024Z,64.23
2018-06-05T07:39:36.130Z,66.87
2018-06-05T07:41:12.322Z,65.10
2018-06-05T07:42:48.471Z,60.77
2018-06-05T07:44:24.675Z,56.83
2018-06-05T07:46:00.720Z,54.53
2018-06-05T07:47:37.071Z,54.83
2018-06-05T07:49:13.217Z,55.77
2018-06-05T07:59:49.190Z,65.00
2018-06-05T08:01:25.145Z,66.33
2018-06-05T08:03:01.163Z,57.20
2018-06-05T08:04:37.144Z,53.53
2018-06-05T08:06:13.144Z,59.83
2018-06-05T08:07:49.357Z,58.07
2018-06-05T08:09:25.383Z,54.67
2018-06-05T08:11:01.530Z,62.17
2018-06-05T08:12:37.727Z,57.90
2018-06-05T08:14:14.204Z,59.57
2018-06-05T08:15:52.239Z,57.83
2018-06-05T08:17:28.248Z,66.73
2018-06-05T08:19:04.293Z,63.87
2018-06-05T08:20:40.285Z,64.20
2018-06-05T08:22:16.424Z,61.57
2018-06-05T08:23:52.562Z,58.83
2018-06-05T08:25:28.992Z,57.63
2018-06-05T08:27:05.887Z,57.70
2018-06-05T08:28:41.950Z,57.67
2018-06-05T08:30:17.973Z,53.53
2018-06-05T08:31:55.197Z,52.80
2018-06-05T08:33:32.930Z,60.53
2018-06-05T08:35:09.335Z,62.00
2018-06-05T08:36:45.416Z,56.07
2018-06-05T08:38:21.524Z,55.33
2018-06-05T08:39:58.506Z,54.57
2018-06-05T08:41:34.670Z,52.00
2018-06-05T08:43:10.734Z,51.20
2018-06-05T08:51:29.409Z,45.27
2018-06-05T08:53:05.486Z,42.77
2018-06-05T08:54:41.512Z,33.23
2018-06-05T08:56:18.983Z,39.47
2018-06-05T08:57:58.840Z,41.83
2018-06-05T08:59:34.965Z,36.57
2018-06-05T09:01:11.004Z,34.33
2018-06-05T09:02:46.992Z,33.13
2018-06-05T09:04:23.109Z,31.80
2018-06-05T09:05:59.065Z,29.63
2018-06-05T09:12:00.250Z,34.80
2018-06-05T09:13:37.649Z,35.93
2018-06-05T09:15:14.926Z,35.23
2018-06-05T09:16:51.013Z,33.30
2018-06-05T09:18:27.081Z,37.17
2018-06-05T09:20:03.162Z,36.03
2018-06-05T09:21:41.944Z,32.03
2018-06-05T09:23:18.121Z,38.63
2018-06-05T09:24:54.489Z,32.77
2018-06-05T09:26:31.395Z,30.43
2018-06-05T09:28:07.399Z,31.43
2018-06-05T09:29:43.474Z,29.93
2018-06-05T09:31:19.825Z,28.47
2018-06-05T09:32:56.122Z,29.73
2018-06-05T09:34:32.171Z,32.93
2018-06-05T09:36:08.620Z,30.80
2018-06-05T09:37:44.727Z,28.63
2018-06-05T09:39:21.098Z,25.33
2018-06-05T09:40:57.168Z,27.27
2018-06-05T09:42:33.125Z,26.67
2018-06-05T09:44:09.284Z,27.33
2018-06-05T09:45:45.321Z,29.10
2018-06-05T09:47:21.313Z,28.93
2018-06-05T09:48:57.368Z,28.77
2018-06-05T09:50:33.464Z,30.00
2018-06-05T09:52:09.814Z,27.20
2018-06-05T09:53:58.389Z,30.53
2018-06-05T09:55:36.599Z,28.83
2018-06-05T09:57:15.634Z,27.37
2018-06-05T09:59:27.197Z,29.73
2018-06-05T10:01:15.742Z,28.37
2018-06-05T10:02:55.982Z,27.43
2018-06-05T10:04:42.574Z,27.63
2018-06-05T10:06:18.723Z,29.50
2018-06-05T10:07:54.755Z,29.27
2018-06-05T10:09:30.747Z,28.93
2018-06-05T10:11:06.758Z,26.03
2018-06-05T10:12:42.832Z,33.60
2018-06-05T10:14:18.915Z,27.23
2018-06-05T10:15:54.930Z,34.37
2018-06-05T10:17:30.969Z,25.27
2018-06-05T10:19:07.088Z,25.43
2018-06-05T10:20:43.354Z,22.53
2018-06-05T10:22:20.001Z,24.40
2018-06-05T10:23:56.007Z,26.27
2018-06-05T10:25:32.034Z,22.53
2018-06-05T10:27:07.480Z,24.53
2018-06-05T10:28:42.842Z,27.70
2018-06-05T10:30:18.166Z,24.03
2018-06-05T10:31:53.518Z,22.80
2018-06-05T10:33:35.124Z,28.43
2018-06-05T10:35:16.763Z,28.83
2018-06-05T10:36:52.119Z,24.77
2018-06-05T10:38:32.025Z,26.63
2018-06-05T10:40:08.355Z,28.37
2018-06-05T10:41:44.796Z,25.07
2018-06-05T10:43:20.839Z,26.67
2018-06-05T10:44:56.894Z,26.33
2018-06-05T10:46:32.910Z,24.93
2018-06-05T10:48:09.003Z,25.10
2018-06-05T10:49:46.067Z,26.27
2018-06-05T10:51:22.098Z,24.50
2018-06-05T10:52:58.174Z,22.67
2018-06-05T10:54:34.154Z,23.50
2018-06-05T10:56:10.357Z,28.67
2018-06-05T10:57:52.754Z,27.37
2018-06-05T10:59:29.566Z,25.87
2018-06-05T11:01:05.585Z,27.50
2018-06-05T11:02:41.829Z,25.37
2018-06-05T11:04:18.001Z,24.27
2018-06-05T11:05:54.097Z,27.00
2018-06-05T11:07:35.125Z,24.97
2018-06-05T11:09:11.537Z,23.77
2018-06-05T11:10:47.611Z,25.97
2018-06-05T11:12:24.411Z,24.27
2018-06-05T11:14:00.664Z,22.17
2018-06-05T11:15:36.777Z,25.37
2018-06-05T11:17:12.829Z,24.27
2018-06-05T11:18:48.933Z,25.77
2018-06-05T11:20:24.981Z,23.50
2018-06-05T11:22:01.290Z,25.33
2018-06-05T11:23:38.215Z,22.50
2018-06-05T11:25:14.426Z,20.90
2018-06-05T11:26:53.438Z,20.30
2018-06-05T11:28:29.294Z,20.20
2018-06-05T11:30:05.981Z,18.73
2018-06-05T11:31:42.027Z,19.33
2018-06-05T11:33:18.282Z,19.67
2018-06-05T11:34:55.398Z,18.80
2018-06-05T11:36:31.514Z,22.07
2018-06-05T11:38:07.840Z,20.73
2018-06-05T11:39:45.037Z,19.73
2018-06-05T11:41:21.233Z,24.03
2018-06-05T11:42:57.335Z,22.37
2018-06-05T11:44:34.071Z,21.07
2018-06-05T11:46:10.077Z,22.83
2018-06-05T11:47:46.131Z,22.60
2018-06-05T11:49:22.330Z,24.17
2018-06-05T11:50:58.585Z,20.93
2018-06-05T11:52:35.452Z,21.50
2018-06-05T11:54:12.048Z,19.03
2018-06-05T11:55:48.698Z,19.40
2018-06-05T11:57:24.806Z,20.67
2018-06-05T11:59:00.881Z,21.03
2018-06-05T12:00:38.105Z,21.97
2018-06-05T12:02:14.285Z,25.13
2018-06-05T12:03:50.282Z,23.03
2018-06-05T12:05:26.328Z,23.30
2018-06-05T12:07:02.401Z,21.10
2018-06-05T12:08:38.482Z,19.73
2018-06-05T12:10:14.700Z,19.53
2018-06-05T12:11:50.801Z,19.97
2018-06-05T12:13:26.920Z,26.03
2018-06-05T12:15:03.014Z,30.77
2018-06-05T12:16:39.449Z,23.33
2018-06-05T12:18:15.525Z,20.00
2018-06-05T12:19:51.595Z,18.77
2018-06-05T12:21:27.748Z,20.73
2018-06-05T12:25:37.152Z,22.30
2018-06-05T12:27:13.418Z,21.90
2018-06-05T12:28:50.033Z,20.27
2018-06-05T12:30:26.094Z,18.13
2018-06-05T12:32:02.499Z,20.03
2018-06-05T12:33:38.956Z,18.07
2018-06-05T12:35:16.346Z,16.93
2018-06-05T12:36:56.381Z,25.47
2018-06-05T12:38:34.469Z,17.37
2018-06-05T12:40:11.571Z,16.00
2018-06-05T12:41:47.716Z,17.77
2018-06-05T12:43:23.674Z,16.57
2018-06-05T12:44:59.500Z,14.50
2018-06-05T12:46:36.142Z,13.60
2018-06-05T12:48:14.399Z,16.60
2018-06-05T12:49:52.240Z,14.33
2018-06-05T12:51:29.362Z,17.43
2018-06-05T12:53:05.829Z,21.97
2018-06-05T12:54:48.159Z,17.60
2018-06-05T12:56:24.374Z,14.63
2018-06-05T12:58:00.951Z,16.23
2018-06-05T12:59:36.924Z,14.13
2018-06-05T13:01:13.588Z,12.83
2018-06-05T13:02:50.628Z,12.13
2018-06-05T13:04:26.755Z,14.77
2018-06-05T13:06:02.864Z,13.33
2018-06-05T13:07:38.906Z,13.23
2018-06-05T13:09:15.215Z,15.60
2018-06-05T13:10:52.598Z,14.90
2018-06-05T13:12:28.859Z,15.10
2018-06-05T13:14:06.220Z,16.53
2018-06-05T13:15:42.367Z,14.43
2018-06-05T13:17:18.730Z,15.20
2018-06-05T13:18:54.872Z,14.90
2018-06-05T13:20:32.792Z,16.17
2018-06-05T13:22:09.257Z,18.20
2018-06-05T13:23:46.122Z,17.07
2018-06-05T13:25:22.298Z,17.40
2018-06-05T13:27:05.263Z,14.67
2018-06-05T13:28:41.271Z,16.40
2018-06-05T13:30:18.036Z,13.57
2018-06-05T13:31:58.161Z,13.03
2018-06-05T13:33:35.267Z,16.30
2018-06-05T13:35:12.528Z,16.27
2018-06-05T13:36:52.693Z,17.23
2018-06-05T13:38:29.743Z,17.23
2018-06-05T13:40:06.102Z,16.80
2018-06-05T13:41:42.124Z,16.00
2018-06-05T13:43:18.570Z,13.70
2018-06-05T13:44:55.186Z,16.40
2018-06-05T13:46:31.402Z,16.37
2018-06-05T13:48:08.332Z,13.47
2018-06-05T13:49:47.172Z,14.73
2018-06-05T13:51:23.730Z,15.90
2018-06-05T13:52:59.702Z,17.13
2018-06-05T13:54:35.879Z,19.37
2018-06-05T13:56:13.047Z,17.60
2018-06-05T13:57:49.229Z,18.37
2018-06-05T13:59:25.229Z,17.33
2018-06-05T14:01:01.250Z,22.10
2018-06-05T14:02:37.627Z,17.30
2018-06-05T14:04:14.418Z,15.97
2018-06-05T14:05:50.642Z,15.83
2018-06-05T14:07:26.609Z,19.70
2018-06-05T14:09:02.433Z,19.10
2018-06-05T14:10:38.276Z,16.53
2018-06-05T14:12:14.420Z,16.63
2018-06-05T14:13:52.193Z,19.80
2018-06-05T14:15:28.870Z,19.07
2018-06-05T14:17:09.267Z,18.07
2018-06-05T14:18:45.409Z,20.27
2018-06-05T14:20:21.761Z,18.50
2018-06-05T14:21:57.947Z,19.57
2018-06-05T14:23:34.742Z,20.10
2018-06-05T14:25:10.722Z,17.33
2018-06-05T14:26:46.822Z,21.10
2018-06-05T14:28:22.872Z,20.60
2018-06-05T14:29:58.911Z,20.37
2018-06-05T14:31:34.941Z,20.07
2018-06-05T14:33:11.169Z,28.47
2018-06-05T14:34:47.857Z,25.80
2018-06-05T14:36:23.933Z,18.03
2018-06-05T14:38:00.286Z,19.93
2018-06-05T14:39:36.346Z,18.60
2018-06-05T14:41:13.106Z,16.83
2018-06-05T14:42:52.281Z,18.07
2018-06-05T14:44:31.939Z,18.60
2018-06-05T14:46:08.250Z,24.00
2018-06-05T14:47:44.278Z,22.27
2018-06-05T14:49:25.095Z,21.77
2018-06-05T14:51:01.277Z,20.60
2018-06-05T14:52:37.616Z,22.37
2018-06-05T14:54:13.756Z,24.80
2018-06-05T14:55:49.865Z,18.40
2018-06-05T14:57:26.821Z,17.60
2018-06-05T14:59:02.626Z,23.67
2018-06-05T15:00:38.462Z,27.90
2018-06-05T15:02:14.608Z,26.83
2018-06-05T15:03:50.944Z,21.37
2018-06-05T15:05:27.132Z,21.20
2018-06-05T15:07:03.541Z,20.23
2018-06-05T15:08:39.562Z,20.50
2018-06-05T15:10:15.641Z,20.40
2018-06-05T15:11:51.694Z,22.57
2018-06-05T15:13:27.695Z,19.87
2018-06-05T15:15:04.625Z,24.33
2018-06-05T15:16:40.882Z,17.80
2018-06-05T15:20:28.787Z,18.87
2018-06-05T15:22:05.046Z,17.87
2018-06-05T15:23:41.260Z,16.23
2018-06-05T15:25:17.350Z,18.90
2018-06-05T15:26:53.351Z,18.13
2018-06-05T15:28:30.210Z,21.17
2018-06-05T15:30:07.272Z,18.93
2018-06-05T15:31:43.344Z,18.40
2018-06-05T15:33:19.398Z,16.60
2018-06-05T15:34:55.417Z,21.97
2018-06-05T15:36:31.648Z,18.87
2018-06-05T15:38:07.735Z,16.97
2018-06-05T15:39:43.727Z,18.50
2018-06-05T15:41:19.735Z,21.40
2018-06-05T15:42:55.736Z,19.03
2018-06-05T15:44:31.810Z,16.30
2018-06-05T15:46:07.826Z,17.53
2018-06-05T15:47:43.894Z,17.23
2018-06-05T15:49:19.883Z,19.40
2018-06-05T15:50:55.886Z,18.27
2018-06-05T15:52:31.934Z,18.70
2018-06-05T15:54:08.161Z,17.70
2018-06-05T15:55:44.429Z,16.97
2018-06-05T15:57:20.469Z,18.23
2018-06-05T15:58:56.866Z,20.53
2018-06-05T16:00:32.990Z,18.00
2018-06-05T16:02:10.509Z,17.17
2018-06-05T16:03:46.621Z,17.43
2018-06-05T16:05:22.659Z,17.10
2018-06-05T16:06:58.707Z,17.27
2018-06-05T16:08:34.756Z,18.47
2018-06-05T16:10:10.926Z,19.77
2018-06-05T16:11:46.952Z,16.57
2018-06-05T16:13:22.985Z,14.80
2018-06-05T16:14:59.226Z,19.70
2018-06-05T16:16:35.439Z,17.03
2018-06-05T16:18:12.168Z,15.93
2018-06-05T16:19:48.269Z,15.53
2018-06-05T16:21:24.793Z,17.53
2018-06-05T16:23:01.303Z,16.83
2018-06-05T16:24:37.826Z,17.20
2018-06-05T16:26:14.481Z,15.87
2018-06-05T16:27:51.127Z,17.47
2018-06-05T16:29:29.081Z,13.97
2018-06-05T16:31:06.165Z,17.53
2018-06-05T16:32:42.338Z,17.67
2018-06-05T16:34:21.456Z,18.83
2018-06-05T16:36:00.149Z,18.30
2018-06-05T16:37:37.274Z,15.57
2018-06-05T16:39:15.849Z,16.47
2018-06-05T16:40:53.143Z,15.17
2018-06-05T16:42:30.154Z,14.67
2018-06-05T16:44:06.312Z,15.67
2018-06-05T16:45:42.500Z,16.00
2018-06-05T16:47:18.830Z,16.47
2018-06-05T16:48:56.145Z,15.20
2018-06-05T16:50:32.373Z,15.80
2018-06-05T16:52:08.730Z,13.27
2018-06-05T16:53:50.872Z,13.40
2018-06-05T16:55:27.660Z,13.70
2018-06-05T16:57:03.844Z,13.03
2018-06-05T16:58:40.121Z,12.50
2018-06-05T17:00:16.408Z,12.47
2018-06-05T17:01:52.722Z,12.87
2018-06-05T17:03:28.967Z,12.43
2018-06-05T17:05:05.276Z,12.57
2018-06-05T17:06:41.323Z,14.10
2018-06-05T17:08:17.452Z,14.07
2018-06-05T17:09:54.128Z,11.67
2018-06-05T17:11:30.555Z,11.93
2018-06-05T17:13:06.742Z,11.03
2018-06-05T17:14:42.817Z,11.20
2018-06-05T17:16:18.820Z,10.87
2018-06-05T17:17:54.979Z,10.57
2018-06-05T17:19:31.028Z,11.63
2018-06-05T17:21:07.086Z,16.80
2018-06-05T17:22:43.299Z,12.83
2018-06-05T17:24:19.632Z,11.63
2018-06-05T17:25:55.970Z,13.57
2018-06-05T17:27:33.449Z,13.10
2018-06-05T17:29:09.494Z,11.50
2018-06-05T17:30:45.694Z,14.07
2018-06-05T17:32:22.354Z,12.37
2018-06-05T17:34:00.588Z,10.67
2018-06-05T17:35:38.331Z,10.00
2018-06-05T17:37:14.578Z,10.90
2018-06-05T17:38:53.239Z,11.17
2018-06-05T17:40:31.487Z,11.20
2018-06-05T17:42:08.212Z,11.40
2018-06-05T17:43:44.581Z,10.07
2018-06-05T17:45:21.370Z,9.73
2018-06-05T17:46:57.699Z,8.63
2018-06-05T17:48:33.681Z,9.50
2018-06-05T17:50:10.016Z,8.70
2018-06-05T17:51:48.343Z,8.47
2018-06-05T17:53:24.427Z,8.87
2018-06-05T17:55:01.183Z,8.33
2018-06-05T17:56:39.153Z,8.90
2018-06-05T17:58:15.114Z,8.67
2018-06-05T17:59:51.405Z,8.90
2018-06-05T18:01:28.534Z,8.50
2018-06-05T18:03:04.750Z,8.43
2018-06-05T18:04:40.755Z,8.83
2018-06-05T18:06:16.763Z,9.00
2018-06-05T18:07:54.002Z,8.90
2018-06-05T18:09:30.211Z,8.87
2018-06-05T18:11:06.385Z,8.37
2018-06-05T18:12:42.641Z,9.30
2018-06-05T18:14:18.673Z,9.10
2018-06-05T18:15:54.715Z,8.50
2018-06-05T18:17:30.903Z,9.67
2018-06-05T18:19:07.068Z,9.37
2018-06-05T18:20:43.150Z,9.03
2018-06-05T18:22:19.303Z,9.90
2018-06-05T18:23:55.398Z,9.30
2018-06-05T18:25:31.362Z,8.90
2018-06-05T18:27:07.390Z,9.47
2018-06-05T18:28:43.451Z,8.63
2018-06-05T18:30:19.401Z,9.47
2018-06-05T18:31:56.366Z,9.13
2018-06-05T18:33:32.368Z,8.60
2018-06-05T18:35:08.896Z,8.47
2018-06-05T18:36:44.992Z,8.47
2018-06-05T18:38:20.987Z,9.33
2018-06-05T18:39:56.992Z,9.37
2018-06-05T18:41:32.995Z,10.30
2018-06-05T18:43:08.942Z,9.20
2018-06-05T18:44:45.868Z,9.77
2018-06-05T18:46:22.799Z,8.83
2018-06-05T18:47:59.902Z,9.10
2018-06-05T18:49:35.859Z,9.70
2018-06-05T18:51:12.033Z,9.60
2018-06-05T18:52:48.249Z,9.23
2018-06-05T18:54:24.691Z,9.37
2018-06-05T18:56:00.727Z,10.23
2018-06-05T18:57:36.669Z,9.67
2018-06-05T18:59:12.667Z,9.37
2018-06-05T19:00:49.311Z,9.60
2018-06-05T19:02:25.283Z,9.27
2018-06-05T19:04:01.320Z,9.70
2018-06-05T19:05:37.382Z,10.23
2018-06-05T19:07:19.315Z,10.20
2018-06-05T19:09:04.935Z,9.03
2018-06-05T19:10:47.380Z,9.77
2018-06-05T19:12:25.596Z,9.90
2018-06-05T19:14:04.404Z,9.03
2018-06-05T19:15:44.470Z,9.63
2018-06-05T19:17:24.597Z,10.07
2018-06-05T19:19:02.217Z,9.77
2018-06-05T19:20:40.534Z,9.33
2018-06-05T19:22:17.822Z,9.77
2018-06-05T19:23:54.159Z,10.30
2018-06-05T19:25:30.254Z,10.13
2018-06-05T19:27:06.469Z,9.70
2018-06-05T19:28:42.747Z,9.83
2018-06-05T19:30:18.766Z,9.83
2018-06-05T19:31:54.866Z,10.03
2018-06-05T19:33:31.046Z,9.73
2018-06-05T19:35:07.204Z,10.27
2018-06-05T19:36:43.285Z,9.83
2018-06-05T19:38:19.539Z,9.67
2018-06-05T19:39:57.183Z,9.70
2018-06-05T19:41:33.609Z,9.77
2018-06-05T19:43:10.112Z,9.73
2018-06-05T19:44:46.245Z,10.33
2018-06-05T19:46:23.170Z,10.33
2018-06-05T19:47:59.307Z,9.47
2018-06-05T19:49:35.290Z,10.40
2018-06-05T19:51:11.367Z,10.13
2018-06-05T19:52:47.455Z,9.93
2018-06-05T19:54:23.686Z,9.30
2018-06-05T19:55:59.815Z,9.70
2018-06-05T19:57:36.870Z,9.83
2018-06-05T19:59:16.367Z,9.90
2018-06-05T20:00:52.833Z,10.60
2018-06-05T20:02:28.891Z,9.63
2018-06-05T20:04:05.146Z,10.60
2018-06-05T20:05:41.191Z,10.13
2018-06-05T20:07:17.222Z,10.57
2018-06-05T20:08:53.695Z,9.63
2018-06-05T20:10:29.750Z,10.07
2018-06-05T20:12:05.895Z,10.50
2018-06-05T20:13:42.161Z,10.47
2018-06-05T20:15:18.677Z,11.33
2018-06-05T20:16:54.755Z,11.07
2018-06-05T20:18:31.013Z,10.77
2018-06-05T20:20:08.303Z,10.53
2018-06-05T20:21:44.308Z,9.70
2018-06-05T20:23:20.863Z,10.57
2018-06-05T20:24:56.926Z,11.70
2018-06-05T20:26:32.961Z,10.67
2018-06-05T20:28:10.124Z,10.80
2018-06-05T20:29:46.178Z,10.30
2018-06-05T20:31:22.203Z,10.13
2018-06-05T20:32:58.235Z,10.43
2018-06-05T20:34:34.238Z,9.57
2018-06-05T20:36:10.271Z,10.80
2018-06-05T20:37:46.340Z,10.77
2018-06-05T20:39:22.393Z,11.50
2018-06-05T20:40:58.433Z,10.53
2018-06-05T20:42:34.481Z,10.57
2018-06-05T20:44:10.519Z,10.50
2018-06-05T20:45:46.571Z,10.70
2018-06-05T20:47:22.653Z,10.20
2018-06-05T20:48:58.658Z,10.70
2018-06-05T20:50:34.945Z,10.77
2018-06-05T20:52:11.113Z,10.97
2018-06-05T20:53:47.144Z,10.77
2018-06-05T20:55:23.202Z,10.73
2018-06-05T20:56:59.253Z,11.50
2018-06-05T20:58:35.305Z,10.60
2018-06-05T21:00:11.393Z,10.80
2018-06-05T21:01:47.455Z,10.90
2018-06-05T21:03:24.088Z,11.23
2018-06-05T21:05:00.094Z,11.13
2018-06-05T21:06:36.117Z,10.33
2018-06-05T21:08:12.185Z,11.07
2018-06-05T21:09:48.335Z,10.73
2018-06-05T21:11:25.445Z,10.80
2018-06-05T21:13:01.507Z,11.07
2018-06-05T21:14:37.514Z,10.77
2018-06-05T21:16:13.521Z,11.30
2018-06-05T21:17:49.576Z,10.63
2018-06-05T21:19:25.608Z,11.13
2018-06-05T21:21:01.394Z,11.57
2018-06-05T21:22:37.235Z,11.37
2018-06-05T21:24:13.247Z,11.87
2018-06-05T21:25:49.765Z,11.77